sensor_id;sensor_type;location;lat;lon;timestamp;P1;durP1;ratioP1;P2;durP2;ratioP2
69369;SDS011;56530;42.640;23.372;2023-06-04T00:01:07;6.47;;;5.80;;
69369;SDS011;56530;42.640;23.372;2023-06-04T00:03:33;6.50;;;5.80;;
69369;SDS011;56530;42.640;23.372;2023-06-04T00:05:59;6.03;;;5.53;;
69369;SDS011;56530;42.640;23.372;2023-06-04T00:08:25;6.37;;;5.40;;
69369;SDS011;56530;42.640;23.372;2023-06-04T00:10:50;5.77;;;5.23;;
69369;SDS011;56530;42.640;23.372;2023-06-04T00:13:16;8.98;;;5.70;;
69369;SDS011;56530;42.640;23.372;2023-06-04T00:15:42;6.05;;;4.78;;
69369;SDS011;56530;42.640;23.372;2023-06-04T00:18:07;6.67;;;5.33;;
69369;SDS011;56530;42.640;23.372;2023-06-04T00:20:32;6.20;;;5.27;;
69369;SDS011;56530;42.640;23.372;2023-06-04T00:22:58;6.90;;;5.23;;
69369;SDS011;56530;42.640;23.372;2023-06-04T00:25:23;5.80;;;5.20;;
69369;SDS011;56530;42.640;23.372;2023-06-04T00:27:49;7.03;;;5.93;;
69369;SDS011;56530;42.640;23.372;2023-06-04T00:30:14;5.77;;;5.20;;
69369;SDS011;56530;42.640;23.372;2023-06-04T00:32:40;6.00;;;4.47;;
69369;SDS011;56530;42.640;23.372;2023-06-04T00:35:06;4.88;;;4.47;;
69369;SDS011;56530;42.640;23.372;2023-06-04T00:37:31;4.85;;;4.35;;
69369;SDS011;56530;42.640;23.372;2023-06-04T00:39:57;4.90;;;4.50;;
69369;SDS011;56530;42.640;23.372;2023-06-04T00:42:23;5.38;;;4.53;;
69369;SDS011;56530;42.640;23.372;2023-06-04T00:44:49;5.53;;;4.73;;
69369;SDS011;56530;42.640;23.372;2023-06-04T00:47:14;4.93;;;4.53;;
69369;SDS011;56530;42.640;23.372;2023-06-04T00:49:41;6.78;;;5.20;;
69369;SDS011;56530;42.640;23.372;2023-06-04T00:52:10;5.70;;;5.10;;
69369;SDS011;56530;42.640;23.372;2023-06-04T00:54:39;4.80;;;4.40;;
69369;SDS011;56530;42.640;23.372;2023-06-04T00:57:05;5.37;;;4.80;;
69369;SDS011;56530;42.640;23.372;2023-06-04T00:59:32;6.25;;;5.15;;
69369;SDS011;56530;42.640;23.372;2023-06-04T01:02:00;6.75;;;6.05;;
69369;SDS011;56530;42.640;23.372;2023-06-04T01:07:09;7.10;;;6.45;;
69369;SDS011;56530;42.640;23.372;2023-06-04T01:09:37;7.68;;;6.90;;
69369;SDS011;56530;42.640;23.372;2023-06-04T01:12:04;8.82;;;8.02;;
69369;SDS011;56530;42.640;23.372;2023-06-04T01:14:30;8.57;;;7.78;;
69369;SDS011;56530;42.640;23.372;2023-06-04T01:22:32;10.60;;;9.50;;
69369;SDS011;56530;42.640;23.372;2023-06-04T01:25:05;12.02;;;9.73;;
69369;SDS011;56530;42.640;23.372;2023-06-04T01:27:37;10.70;;;9.23;;
69369;SDS011;56530;42.640;23.372;2023-06-04T01:30:05;10.30;;;9.37;;
69369;SDS011;56530;42.640;23.372;2023-06-04T01:32:32;10.30;;;9.30;;
69369;SDS011;56530;42.640;23.372;2023-06-04T01:34:58;9.98;;;8.93;;
69369;SDS011;56530;42.640;23.372;2023-06-04T01:37:23;11.23;;;10.13;;
69369;SDS011;56530;42.640;23.372;2023-06-04T01:39:49;9.80;;;8.83;;
69369;SDS011;56530;42.640;23.372;2023-06-04T01:42:14;8.63;;;7.83;;
69369;SDS011;56530;42.640;23.372;2023-06-04T01:44:40;8.52;;;7.70;;
69369;SDS011;56530;42.640;23.372;2023-06-04T01:47:05;8.63;;;6.40;;
69369;SDS011;56530;42.640;23.372;2023-06-04T01:49:31;6.15;;;5.55;;
69369;SDS011;56530;42.640;23.372;2023-06-04T01:51:56;6.57;;;6.05;;
69369;SDS011;56530;42.640;23.372;2023-06-04T01:54:21;6.00;;;5.50;;
69369;SDS011;56530;42.640;23.372;2023-06-04T01:56:47;6.30;;;5.70;;
69369;SDS011;56530;42.640;23.372;2023-06-04T01:59:13;5.00;;;4.50;;
69369;SDS011;56530;42.640;23.372;2023-06-04T02:01:41;4.85;;;4.15;;
69369;SDS011;56530;42.640;23.372;2023-06-04T02:04:06;3.60;;;3.30;;
69369;SDS011;56530;42.640;23.372;2023-06-04T02:06:32;4.27;;;3.80;;
69369;SDS011;56530;42.640;23.372;2023-06-04T02:08:57;5.55;;;3.67;;
69369;SDS011;56530;42.640;23.372;2023-06-04T02:11:23;3.75;;;3.45;;
69369;SDS011;56530;42.640;23.372;2023-06-04T02:13:48;3.87;;;3.47;;
69369;SDS011;56530;42.640;23.372;2023-06-04T02:16:13;4.17;;;3.30;;
69369;SDS011;56530;42.640;23.372;2023-06-04T02:18:39;3.57;;;3.27;;
69369;SDS011;56530;42.640;23.372;2023-06-04T02:21:05;3.47;;;3.20;;
69369;SDS011;56530;42.640;23.372;2023-06-04T02:23:30;4.03;;;3.65;;
69369;SDS011;56530;42.640;23.372;2023-06-04T02:25:55;5.00;;;3.77;;
69369;SDS011;56530;42.640;23.372;2023-06-04T02:28:21;4.00;;;3.60;;
69369;SDS011;56530;42.640;23.372;2023-06-04T02:30:46;4.07;;;3.67;;
69369;SDS011;56530;42.640;23.372;2023-06-04T02:33:12;5.93;;;3.60;;
69369;SDS011;56530;42.640;23.372;2023-06-04T02:35:38;4.93;;;3.67;;
69369;SDS011;56530;42.640;23.372;2023-06-04T02:38:04;4.00;;;3.60;;
69369;SDS011;56530;42.640;23.372;2023-06-04T02:40:30;3.67;;;3.38;;
69369;SDS011;56530;42.640;23.372;2023-06-04T02:42:55;5.80;;;3.40;;
69369;SDS011;56530;42.640;23.372;2023-06-04T02:45:21;5.10;;;3.63;;
69369;SDS011;56530;42.640;23.372;2023-06-04T02:47:47;3.85;;;3.30;;
69369;SDS011;56530;42.640;23.372;2023-06-04T02:50:13;3.95;;;3.50;;
69369;SDS011;56530;42.640;23.372;2023-06-04T02:52:39;3.70;;;3.23;;
69369;SDS011;56530;42.640;23.372;2023-06-04T02:55:05;3.60;;;3.30;;
69369;SDS011;56530;42.640;23.372;2023-06-04T02:57:31;5.90;;;3.70;;
69369;SDS011;56530;42.640;23.372;2023-06-04T02:59:57;4.35;;;3.22;;
69369;SDS011;56530;42.640;23.372;2023-06-04T03:02:23;3.70;;;3.40;;
69369;SDS011;56530;42.640;23.372;2023-06-04T03:04:49;5.60;;;3.20;;
69369;SDS011;56530;42.640;23.372;2023-06-04T03:07:16;3.97;;;3.17;;
69369;SDS011;56530;42.640;23.372;2023-06-04T03:09:45;5.60;;;3.80;;
69369;SDS011;56530;42.640;23.372;2023-06-04T03:12:11;3.75;;;3.35;;
69369;SDS011;56530;42.640;23.372;2023-06-04T03:14:37;6.30;;;3.40;;
69369;SDS011;56530;42.640;23.372;2023-06-04T03:17:02;4.03;;;3.20;;
69369;SDS011;56530;42.640;23.372;2023-06-04T03:19:36;3.45;;;3.03;;
69369;SDS011;56530;42.640;23.372;2023-06-04T03:22:02;4.95;;;3.30;;
69369;SDS011;56530;42.640;23.372;2023-06-04T03:24:30;6.38;;;3.25;;
69369;SDS011;56530;42.640;23.372;2023-06-04T03:26:57;3.08;;;2.85;;
69369;SDS011;56530;42.640;23.372;2023-06-04T03:29:23;5.43;;;3.27;;
69369;SDS011;56530;42.640;23.372;2023-06-04T03:31:48;3.90;;;3.60;;
69369;SDS011;56530;42.640;23.372;2023-06-04T03:34:14;4.67;;;3.57;;
69369;SDS011;56530;42.640;23.372;2023-06-04T03:36:39;6.27;;;3.40;;
69369;SDS011;56530;42.640;23.372;2023-06-04T03:39:04;3.80;;;3.40;;
69369;SDS011;56530;42.640;23.372;2023-06-04T03:41:30;5.83;;;3.87;;
69369;SDS011;56530;42.640;23.372;2023-06-04T03:43:55;3.60;;;3.30;;
69369;SDS011;56530;42.640;23.372;2023-06-04T03:46:21;3.70;;;3.40;;
69369;SDS011;56530;42.640;23.372;2023-06-04T03:48:46;6.97;;;3.40;;
69369;SDS011;56530;42.640;23.372;2023-06-04T03:51:12;5.35;;;3.47;;
69369;SDS011;56530;42.640;23.372;2023-06-04T03:53:37;4.27;;;3.17;;
69369;SDS011;56530;42.640;23.372;2023-06-04T03:56:02;3.20;;;2.90;;
69369;SDS011;56530;42.640;23.372;2023-06-04T03:58:28;3.90;;;3.60;;
69369;SDS011;56530;42.640;23.372;2023-06-04T04:00:53;4.47;;;3.73;;
69369;SDS011;56530;42.640;23.372;2023-06-04T04:03:19;3.97;;;3.50;;
69369;SDS011;56530;42.640;23.372;2023-06-04T04:05:45;4.80;;;3.57;;
69369;SDS011;56530;42.640;23.372;2023-06-04T04:08:10;3.97;;;3.47;;
69369;SDS011;56530;42.640;23.372;2023-06-04T04:10:35;3.87;;;3.43;;
69369;SDS011;56530;42.640;23.372;2023-06-04T04:13:01;5.73;;;3.40;;
69369;SDS011;56530;42.640;23.372;2023-06-04T04:15:26;5.43;;;3.23;;
69369;SDS011;56530;42.640;23.372;2023-06-04T04:17:52;4.10;;;3.80;;
69369;SDS011;56530;42.640;23.372;2023-06-04T04:20:17;4.40;;;4.03;;
69369;SDS011;56530;42.640;23.372;2023-06-04T04:22:43;4.93;;;3.73;;
69369;SDS011;56530;42.640;23.372;2023-06-04T04:25:09;4.33;;;3.87;;
69369;SDS011;56530;42.640;23.372;2023-06-04T04:27:34;5.10;;;3.80;;
69369;SDS011;56530;42.640;23.372;2023-06-04T04:30:04;3.93;;;3.27;;
69369;SDS011;56530;42.640;23.372;2023-06-04T04:32:30;4.32;;;4.00;;
69369;SDS011;56530;42.640;23.372;2023-06-04T04:34:56;5.93;;;3.85;;
69369;SDS011;56530;42.640;23.372;2023-06-04T04:37:22;4.37;;;4.00;;
69369;SDS011;56530;42.640;23.372;2023-06-04T04:39:48;7.93;;;4.13;;
69369;SDS011;56530;42.640;23.372;2023-06-04T04:42:17;4.88;;;4.00;;
69369;SDS011;56530;42.640;23.372;2023-06-04T04:44:44;5.47;;;4.30;;
69369;SDS011;56530;42.640;23.372;2023-06-04T04:47:12;4.75;;;4.07;;
69369;SDS011;56530;42.640;23.372;2023-06-04T04:49:41;4.95;;;4.43;;
69369;SDS011;56530;42.640;23.372;2023-06-04T04:52:06;8.23;;;4.70;;
69369;SDS011;56530;42.640;23.372;2023-06-04T04:54:32;8.20;;;3.97;;
69369;SDS011;56530;42.640;23.372;2023-06-04T04:56:57;6.43;;;4.40;;
69369;SDS011;56530;42.640;23.372;2023-06-04T04:59:23;8.60;;;4.83;;
69369;SDS011;56530;42.640;23.372;2023-06-04T05:01:48;7.23;;;4.47;;
69369;SDS011;56530;42.640;23.372;2023-06-04T05:04:14;8.10;;;4.93;;
69369;SDS011;56530;42.640;23.372;2023-06-04T05:06:39;5.37;;;4.63;;
69369;SDS011;56530;42.640;23.372;2023-06-04T05:09:04;5.27;;;4.53;;
69369;SDS011;56530;42.640;23.372;2023-06-04T05:11:30;6.03;;;5.10;;
69369;SDS011;56530;42.640;23.372;2023-06-04T05:13:55;6.27;;;5.03;;
69369;SDS011;56530;42.640;23.372;2023-06-04T05:16:21;6.57;;;4.67;;
69369;SDS011;56530;42.640;23.372;2023-06-04T05:18:47;5.45;;;4.90;;
69369;SDS011;56530;42.640;23.372;2023-06-04T05:21:13;6.40;;;4.90;;
69369;SDS011;56530;42.640;23.372;2023-06-04T05:23:38;8.00;;;4.90;;
69369;SDS011;56530;42.640;23.372;2023-06-04T05:26:04;7.47;;;4.93;;
69369;SDS011;56530;42.640;23.372;2023-06-04T05:28:30;7.83;;;5.03;;
69369;SDS011;56530;42.640;23.372;2023-06-04T05:30:58;6.40;;;5.07;;
69369;SDS011;56530;42.640;23.372;2023-06-04T05:33:26;11.23;;;5.72;;
69369;SDS011;56530;42.640;23.372;2023-06-04T05:35:52;7.05;;;5.90;;
69369;SDS011;56530;42.640;23.372;2023-06-04T05:38:19;7.27;;;5.23;;
69369;SDS011;56530;42.640;23.372;2023-06-04T05:40:45;7.75;;;6.05;;
69369;SDS011;56530;42.640;23.372;2023-06-04T05:43:11;9.37;;;5.80;;
69369;SDS011;56530;42.640;23.372;2023-06-04T05:45:37;9.00;;;5.68;;
69369;SDS011;56530;42.640;23.372;2023-06-04T05:48:03;8.07;;;6.45;;
69369;SDS011;56530;42.640;23.372;2023-06-04T05:50:29;9.68;;;6.75;;
69369;SDS011;56530;42.640;23.372;2023-06-04T05:52:55;9.03;;;5.93;;
69369;SDS011;56530;42.640;23.372;2023-06-04T05:55:21;6.40;;;5.90;;
69369;SDS011;56530;42.640;23.372;2023-06-04T05:57:47;7.43;;;6.47;;
69369;SDS011;56530;42.640;23.372;2023-06-04T06:00:13;10.60;;;5.70;;
69369;SDS011;56530;42.640;23.372;2023-06-04T06:02:38;8.30;;;6.05;;
69369;SDS011;56530;42.640;23.372;2023-06-04T06:05:04;6.70;;;6.00;;
69369;SDS011;56530;42.640;23.372;2023-06-04T06:07:33;8.33;;;5.50;;
69369;SDS011;56530;42.640;23.372;2023-06-04T06:09:58;7.20;;;5.70;;
69369;SDS011;56530;42.640;23.372;2023-06-04T06:12:24;7.03;;;5.53;;
69369;SDS011;56530;42.640;23.372;2023-06-04T06:14:49;7.60;;;5.70;;
69369;SDS011;56530;42.640;23.372;2023-06-04T06:17:15;6.67;;;5.50;;
69369;SDS011;56530;42.640;23.372;2023-06-04T06:19:40;8.73;;;5.97;;
69369;SDS011;56530;42.640;23.372;2023-06-04T06:22:05;6.43;;;5.70;;
69369;SDS011;56530;42.640;23.372;2023-06-04T06:24:31;8.60;;;5.93;;
69369;SDS011;56530;42.640;23.372;2023-06-04T06:26:58;7.43;;;5.40;;
69369;SDS011;56530;42.640;23.372;2023-06-04T06:29:24;6.23;;;5.63;;
69369;SDS011;56530;42.640;23.372;2023-06-04T06:31:49;9.43;;;5.50;;
69369;SDS011;56530;42.640;23.372;2023-06-04T06:34:14;6.43;;;5.75;;
69369;SDS011;56530;42.640;23.372;2023-06-04T06:36:40;9.90;;;5.80;;
69369;SDS011;56530;42.640;23.372;2023-06-04T06:39:05;6.00;;;5.30;;
69369;SDS011;56530;42.640;23.372;2023-06-04T06:41:31;7.40;;;5.73;;
69369;SDS011;56530;42.640;23.372;2023-06-04T06:43:56;9.27;;;6.00;;
69369;SDS011;56530;42.640;23.372;2023-06-04T06:46:22;8.10;;;5.13;;
69369;SDS011;56530;42.640;23.372;2023-06-04T06:48:48;6.00;;;5.40;;
69369;SDS011;56530;42.640;23.372;2023-06-04T06:51:14;9.50;;;5.43;;
69369;SDS011;56530;42.640;23.372;2023-06-04T06:53:39;7.05;;;5.28;;
69369;SDS011;56530;42.640;23.372;2023-06-04T06:56:05;6.30;;;5.00;;
69369;SDS011;56530;42.640;23.372;2023-06-04T06:58:31;8.57;;;5.28;;
69369;SDS011;56530;42.640;23.372;2023-06-04T07:00:56;11.27;;;5.27;;
69369;SDS011;56530;42.640;23.372;2023-06-04T07:03:22;6.10;;;5.50;;
69369;SDS011;56530;42.640;23.372;2023-06-04T07:05:47;6.13;;;4.97;;
69369;SDS011;56530;42.640;23.372;2023-06-04T07:08:13;6.55;;;5.40;;
69369;SDS011;56530;42.640;23.372;2023-06-04T07:10:39;6.03;;;5.30;;
69369;SDS011;56530;42.640;23.372;2023-06-04T07:13:04;7.03;;;5.70;;
69369;SDS011;56530;42.640;23.372;2023-06-04T07:15:30;5.63;;;5.00;;
69369;SDS011;56530;42.640;23.372;2023-06-04T07:17:55;7.73;;;5.50;;
69369;SDS011;56530;42.640;23.372;2023-06-04T07:20:20;9.52;;;5.97;;
69369;SDS011;56530;42.640;23.372;2023-06-04T07:22:46;7.43;;;6.03;;
69369;SDS011;56530;42.640;23.372;2023-06-04T07:25:12;8.10;;;6.17;;
69369;SDS011;56530;42.640;23.372;2023-06-04T07:27:37;5.97;;;5.33;;
69369;SDS011;56530;42.640;23.372;2023-06-04T07:30:03;6.20;;;5.30;;
69369;SDS011;56530;42.640;23.372;2023-06-04T07:32:29;6.60;;;5.03;;
69369;SDS011;56530;42.640;23.372;2023-06-04T07:34:54;6.40;;;5.13;;
69369;SDS011;56530;42.640;23.372;2023-06-04T07:37:20;6.90;;;5.80;;
69369;SDS011;56530;42.640;23.372;2023-06-04T07:39:45;7.20;;;5.60;;
69369;SDS011;56530;42.640;23.372;2023-06-04T07:42:10;7.90;;;6.50;;
69369;SDS011;56530;42.640;23.372;2023-06-04T07:44:36;6.90;;;6.00;;
69369;SDS011;56530;42.640;23.372;2023-06-04T07:47:03;11.55;;;7.05;;
69369;SDS011;56530;42.640;23.372;2023-06-04T07:49:29;9.73;;;7.03;;
69369;SDS011;56530;42.640;23.372;2023-06-04T07:51:56;6.88;;;6.20;;
69369;SDS011;56530;42.640;23.372;2023-06-04T07:54:22;9.35;;;6.80;;
69369;SDS011;56530;42.640;23.372;2023-06-04T07:56:48;7.00;;;6.30;;
69369;SDS011;56530;42.640;23.372;2023-06-04T07:59:13;12.37;;;7.43;;
69369;SDS011;56530;42.640;23.372;2023-06-04T08:01:39;12.17;;;7.40;;
69369;SDS011;56530;42.640;23.372;2023-06-04T08:04:04;8.77;;;6.63;;
69369;SDS011;56530;42.640;23.372;2023-06-04T08:06:30;10.23;;;6.70;;
69369;SDS011;56530;42.640;23.372;2023-06-04T08:08:55;7.97;;;6.30;;
69369;SDS011;56530;42.640;23.372;2023-06-04T08:11:20;9.20;;;7.23;;
69369;SDS011;56530;42.640;23.372;2023-06-04T08:13:49;7.43;;;6.53;;
69369;SDS011;56530;42.640;23.372;2023-06-04T08:16:14;7.30;;;6.00;;
69369;SDS011;56530;42.640;23.372;2023-06-04T08:18:40;9.50;;;6.57;;
69369;SDS011;56530;42.640;23.372;2023-06-04T08:21:08;12.57;;;7.37;;
69369;SDS011;56530;42.640;23.372;2023-06-04T08:23:35;8.63;;;7.72;;
69369;SDS011;56530;42.640;23.372;2023-06-04T08:26:00;11.97;;;8.17;;
69369;SDS011;56530;42.640;23.372;2023-06-04T08:28:26;11.77;;;7.70;;
69369;SDS011;56530;42.640;23.372;2023-06-04T08:30:51;10.43;;;8.27;;
69369;SDS011;56530;42.640;23.372;2023-06-04T08:33:17;10.07;;;7.57;;
69369;SDS011;56530;42.640;23.372;2023-06-04T08:35:42;10.77;;;8.33;;
69369;SDS011;56530;42.640;23.372;2023-06-04T08:38:07;10.17;;;7.93;;
69369;SDS011;56530;42.640;23.372;2023-06-04T08:40:33;9.07;;;8.05;;
69369;SDS011;56530;42.640;23.372;2023-06-04T08:43:00;8.55;;;7.32;;
69369;SDS011;56530;42.640;23.372;2023-06-04T08:45:26;9.80;;;7.90;;
69369;SDS011;56530;42.640;23.372;2023-06-04T08:47:52;10.10;;;7.90;;
69369;SDS011;56530;42.640;23.372;2023-06-04T08:50:19;8.98;;;8.07;;
69369;SDS011;56530;42.640;23.372;2023-06-04T08:52:47;10.38;;;7.28;;
69369;SDS011;56530;42.640;23.372;2023-06-04T08:55:14;10.20;;;7.53;;
69369;SDS011;56530;42.640;23.372;2023-06-04T08:57:40;9.10;;;7.18;;
69369;SDS011;56530;42.640;23.372;2023-06-04T09:00:06;12.03;;;6.60;;
69369;SDS011;56530;42.640;23.372;2023-06-04T09:02:36;9.55;;;7.07;;
69369;SDS011;56530;42.640;23.372;2023-06-04T09:05:05;11.63;;;6.70;;
69369;SDS011;56530;42.640;23.372;2023-06-04T09:07:35;7.45;;;6.50;;
69369;SDS011;56530;42.640;23.372;2023-06-04T09:10:02;8.25;;;6.75;;
69369;SDS011;56530;42.640;23.372;2023-06-04T09:12:27;11.43;;;6.78;;
69369;SDS011;56530;42.640;23.372;2023-06-04T09:14:53;9.15;;;6.90;;
69369;SDS011;56530;42.640;23.372;2023-06-04T09:17:23;12.35;;;7.10;;
69369;SDS011;56530;42.640;23.372;2023-06-04T09:19:49;7.95;;;7.25;;
69369;SDS011;56530;42.640;23.372;2023-06-04T09:22:15;9.75;;;7.97;;
69369;SDS011;56530;42.640;23.372;2023-06-04T09:24:44;8.93;;;7.50;;
69369;SDS011;56530;42.640;23.372;2023-06-04T09:27:21;11.48;;;7.90;;
69369;SDS011;56530;42.640;23.372;2023-06-04T09:29:56;10.30;;;8.10;;
69369;SDS011;56530;42.640;23.372;2023-06-04T09:32:23;8.93;;;7.65;;
69369;SDS011;56530;42.640;23.372;2023-06-04T09:37:42;11.68;;;8.65;;
69369;SDS011;56530;42.640;23.372;2023-06-04T09:40:08;11.05;;;8.40;;
69369;SDS011;56530;42.640;23.372;2023-06-04T09:42:41;12.32;;;8.48;;
69369;SDS011;56530;42.640;23.372;2023-06-04T09:45:08;9.85;;;7.97;;
69369;SDS011;56530;42.640;23.372;2023-06-04T09:47:43;10.25;;;7.85;;
69369;SDS011;56530;42.640;23.372;2023-06-04T09:50:12;11.02;;;8.18;;
69369;SDS011;56530;42.640;23.372;2023-06-04T09:52:37;11.87;;;8.13;;
69369;SDS011;56530;42.640;23.372;2023-06-04T09:55:14;9.73;;;8.53;;
69369;SDS011;56530;42.640;23.372;2023-06-04T09:57:44;10.90;;;7.90;;
69369;SDS011;56530;42.640;23.372;2023-06-04T10:00:11;9.00;;;7.47;;
69369;SDS011;56530;42.640;23.372;2023-06-04T10:02:37;9.60;;;7.68;;
69369;SDS011;56530;42.640;23.372;2023-06-04T10:05:03;9.33;;;7.87;;
69369;SDS011;56530;42.640;23.372;2023-06-04T10:07:33;8.98;;;7.20;;
69369;SDS011;56530;42.640;23.372;2023-06-04T10:10:00;10.52;;;6.60;;
69369;SDS011;56530;42.640;23.372;2023-06-04T10:12:26;9.57;;;6.90;;
69369;SDS011;56530;42.640;23.372;2023-06-04T10:15:07;9.88;;;7.13;;
69369;SDS011;56530;42.640;23.372;2023-06-04T10:17:36;7.97;;;6.53;;
69369;SDS011;56530;42.640;23.372;2023-06-04T10:20:02;9.20;;;6.45;;
69369;SDS011;56530;42.640;23.372;2023-06-04T10:22:31;11.30;;;7.10;;
69369;SDS011;56530;42.640;23.372;2023-06-04T10:25:00;9.50;;;6.63;;
69369;SDS011;56530;42.640;23.372;2023-06-04T10:27:25;7.80;;;7.00;;
69369;SDS011;56530;42.640;23.372;2023-06-04T10:29:52;10.27;;;7.10;;
69369;SDS011;56530;42.640;23.372;2023-06-04T10:32:18;11.30;;;8.25;;
69369;SDS011;56530;42.640;23.372;2023-06-04T10:34:45;9.85;;;7.03;;
69369;SDS011;56530;42.640;23.372;2023-06-04T10:37:21;7.78;;;6.22;;
69369;SDS011;56530;42.640;23.372;2023-06-04T10:42:21;8.43;;;6.30;;
69369;SDS011;56530;42.640;23.372;2023-06-04T10:44:48;9.37;;;6.80;;
69369;SDS011;56530;42.640;23.372;2023-06-04T10:49:47;7.30;;;6.50;;
69369;SDS011;56530;42.640;23.372;2023-06-04T10:52:13;7.68;;;6.88;;
69369;SDS011;56530;42.640;23.372;2023-06-04T10:54:40;10.30;;;7.20;;
69369;SDS011;56530;42.640;23.372;2023-06-04T10:57:10;12.47;;;7.60;;
69369;SDS011;56530;42.640;23.372;2023-06-04T10:59:37;10.98;;;7.43;;
69369;SDS011;56530;42.640;23.372;2023-06-04T11:02:04;8.00;;;7.13;;
69369;SDS011;56530;42.640;23.372;2023-06-04T11:04:31;10.20;;;8.05;;
69369;SDS011;56530;42.640;23.372;2023-06-04T11:07:00;10.53;;;8.07;;
69369;SDS011;56530;42.640;23.372;2023-06-04T11:09:30;8.52;;;7.60;;
69369;SDS011;56530;42.640;23.372;2023-06-04T11:11:59;8.85;;;7.45;;
69369;SDS011;56530;42.640;23.372;2023-06-04T11:14:24;8.70;;;7.20;;
69369;SDS011;56530;42.640;23.372;2023-06-04T11:16:50;7.88;;;7.25;;
69369;SDS011;56530;42.640;23.372;2023-06-04T11:19:16;7.85;;;7.10;;
69369;SDS011;56530;42.640;23.372;2023-06-04T11:21:41;9.70;;;7.70;;
69369;SDS011;56530;42.640;23.372;2023-06-04T11:24:07;9.13;;;7.50;;
69369;SDS011;56530;42.640;23.372;2023-06-04T11:26:33;11.83;;;7.83;;
69369;SDS011;56530;42.640;23.372;2023-06-04T11:28:59;9.10;;;8.20;;
69369;SDS011;56530;42.640;23.372;2023-06-04T11:31:25;8.63;;;7.83;;
69369;SDS011;56530;42.640;23.372;2023-06-04T11:33:51;12.83;;;7.97;;
69369;SDS011;56530;42.640;23.372;2023-06-04T11:36:26;8.73;;;7.72;;
69369;SDS011;56530;42.640;23.372;2023-06-04T11:38:54;7.90;;;7.10;;
69369;SDS011;56530;42.640;23.372;2023-06-04T11:41:23;8.32;;;7.38;;
69369;SDS011;56530;42.640;23.372;2023-06-04T11:44:01;12.25;;;8.48;;
69369;SDS011;56530;42.640;23.372;2023-06-04T11:46:32;7.80;;;7.10;;
69369;SDS011;56530;42.640;23.372;2023-06-04T11:48:58;8.63;;;7.70;;
69369;SDS011;56530;42.640;23.372;2023-06-04T11:51:24;9.77;;;8.07;;
69369;SDS011;56530;42.640;23.372;2023-06-04T11:53:49;10.50;;;8.23;;
69369;SDS011;56530;42.640;23.372;2023-06-04T11:56:15;8.75;;;7.38;;
69369;SDS011;56530;42.640;23.372;2023-06-04T11:58:41;8.65;;;7.85;;
69369;SDS011;56530;42.640;23.372;2023-06-04T12:01:07;9.05;;;8.20;;
69369;SDS011;56530;42.640;23.372;2023-06-04T12:03:37;9.00;;;8.20;;
69369;SDS011;56530;42.640;23.372;2023-06-04T12:06:17;10.52;;;7.82;;
69369;SDS011;56530;42.640;23.372;2023-06-04T12:08:47;9.27;;;8.35;;
69369;SDS011;56530;42.640;23.372;2023-06-04T12:11:37;8.43;;;7.63;;
69369;SDS011;56530;42.640;23.372;2023-06-04T12:14:05;9.00;;;8.10;;
69369;SDS011;56530;42.640;23.372;2023-06-04T12:16:31;9.10;;;7.90;;
69369;SDS011;56530;42.640;23.372;2023-06-04T12:19:31;8.20;;;7.18;;
69369;SDS011;56530;42.640;23.372;2023-06-04T12:22:01;10.57;;;7.47;;
69369;SDS011;56530;42.640;23.372;2023-06-04T12:24:30;9.80;;;7.63;;
69369;SDS011;56530;42.640;23.372;2023-06-04T12:27:06;8.80;;;7.80;;
69369;SDS011;56530;42.640;23.372;2023-06-04T12:29:34;8.57;;;7.57;;
69369;SDS011;56530;42.640;23.372;2023-06-04T12:34:30;9.45;;;7.88;;
69369;SDS011;56530;42.640;23.372;2023-06-04T12:36:56;10.18;;;7.95;;
69369;SDS011;56530;42.640;23.372;2023-06-04T12:39:21;9.90;;;8.00;;
69369;SDS011;56530;42.640;23.372;2023-06-04T12:41:47;9.97;;;7.57;;
69369;SDS011;56530;42.640;23.372;2023-06-04T12:44:12;8.60;;;7.70;;
69369;SDS011;56530;42.640;23.372;2023-06-04T12:46:37;8.90;;;8.10;;
69369;SDS011;56530;42.640;23.372;2023-06-04T12:49:03;9.17;;;8.07;;
69369;SDS011;56530;42.640;23.372;2023-06-04T12:51:28;9.90;;;8.33;;
69369;SDS011;56530;42.640;23.372;2023-06-04T12:53:54;8.20;;;7.13;;
69369;SDS011;56530;42.640;23.372;2023-06-04T12:56:19;8.63;;;7.73;;
69369;SDS011;56530;42.640;23.372;2023-06-04T12:58:45;8.57;;;7.40;;
69369;SDS011;56530;42.640;23.372;2023-06-04T13:01:10;9.63;;;7.50;;
69369;SDS011;56530;42.640;23.372;2023-06-04T13:03:36;8.90;;;6.60;;
69369;SDS011;56530;42.640;23.372;2023-06-04T13:06:03;7.32;;;6.63;;
69369;SDS011;56530;42.640;23.372;2023-06-04T13:08:29;7.85;;;6.45;;
69369;SDS011;56530;42.640;23.372;2023-06-04T13:10:55;11.15;;;7.25;;
69369;SDS011;56530;42.640;23.372;2023-06-04T13:13:20;9.30;;;6.55;;
69369;SDS011;56530;42.640;23.372;2023-06-04T13:15:46;8.23;;;6.20;;
69369;SDS011;56530;42.640;23.372;2023-06-04T13:18:11;7.75;;;6.82;;
69369;SDS011;56530;42.640;23.372;2023-06-04T13:20:37;6.88;;;6.18;;
69369;SDS011;56530;42.640;23.372;2023-06-04T13:23:04;8.85;;;7.13;;
69369;SDS011;56530;42.640;23.372;2023-06-04T13:25:30;6.13;;;5.63;;
69369;SDS011;56530;42.640;23.372;2023-06-04T13:27:57;7.25;;;6.53;;
69369;SDS011;56530;42.640;23.372;2023-06-04T13:30:23;7.63;;;6.30;;
69369;SDS011;56530;42.640;23.372;2023-06-04T13:32:49;8.50;;;6.88;;
69369;SDS011;56530;42.640;23.372;2023-06-04T13:35:17;8.40;;;6.95;;
69369;SDS011;56530;42.640;23.372;2023-06-04T13:37:42;7.10;;;6.40;;
69369;SDS011;56530;42.640;23.372;2023-06-04T13:40:08;8.63;;;6.47;;
69369;SDS011;56530;42.640;23.372;2023-06-04T13:42:34;11.32;;;7.00;;
69369;SDS011;56530;42.640;23.372;2023-06-04T13:44:59;11.57;;;6.53;;
69369;SDS011;56530;42.640;23.372;2023-06-04T13:47:24;9.63;;;6.73;;
69369;SDS011;56530;42.640;23.372;2023-06-04T13:49:50;7.40;;;6.70;;
69369;SDS011;56530;42.640;23.372;2023-06-04T13:52:16;7.97;;;7.17;;
69369;SDS011;56530;42.640;23.372;2023-06-04T13:54:42;9.10;;;7.03;;
69369;SDS011;56530;42.640;23.372;2023-06-04T13:57:07;8.40;;;6.77;;
69369;SDS011;56530;42.640;23.372;2023-06-04T13:59:36;8.17;;;7.30;;
69369;SDS011;56530;42.640;23.372;2023-06-04T14:02:02;9.85;;;6.97;;
69369;SDS011;56530;42.640;23.372;2023-06-04T14:04:27;9.75;;;6.93;;
69369;SDS011;56530;42.640;23.372;2023-06-04T14:06:52;8.73;;;7.47;;
69369;SDS011;56530;42.640;23.372;2023-06-04T14:09:18;7.97;;;6.97;;
69369;SDS011;56530;42.640;23.372;2023-06-04T14:11:44;10.00;;;7.05;;
69369;SDS011;56530;42.640;23.372;2023-06-04T14:14:14;9.65;;;7.20;;
69369;SDS011;56530;42.640;23.372;2023-06-04T14:16:40;11.97;;;8.03;;
69369;SDS011;56530;42.640;23.372;2023-06-04T14:19:05;9.00;;;6.80;;
69369;SDS011;56530;42.640;23.372;2023-06-04T14:21:30;7.83;;;6.97;;
69369;SDS011;56530;42.640;23.372;2023-06-04T14:23:56;8.27;;;7.00;;
69369;SDS011;56530;42.640;23.372;2023-06-04T14:26:21;7.83;;;7.10;;
69369;SDS011;56530;42.640;23.372;2023-06-04T14:28:47;7.80;;;6.90;;
69369;SDS011;56530;42.640;23.372;2023-06-04T14:31:12;9.83;;;6.73;;
69369;SDS011;56530;42.640;23.372;2023-06-04T14:33:38;9.57;;;6.77;;
69369;SDS011;56530;42.640;23.372;2023-06-04T14:36:03;8.53;;;6.60;;
69369;SDS011;56530;42.640;23.372;2023-06-04T14:38:29;9.35;;;7.38;;
69369;SDS011;56530;42.640;23.372;2023-06-04T14:40:55;7.20;;;6.50;;
69369;SDS011;56530;42.640;23.372;2023-06-04T14:43:21;8.95;;;7.25;;
69369;SDS011;56530;42.640;23.372;2023-06-04T14:45:50;9.68;;;6.90;;
69369;SDS011;56530;42.640;23.372;2023-06-04T14:48:15;7.22;;;6.63;;